Time;durP1;ratioP1;P1;durP2;ratioP2;P2;SDS_P1;SDS_P2;PMS_P1;PMS_P2;Temp;Humidity;BMP_temperature;BMP_pressure;BME280_temperature;BME280_humidity;BME280_pressure;Samples;Min_cycle;Max_cycle;Signal;HPM_P1;HPM_P2
2021/10/12 00:02:26;;;;;;;20.50;18.33;;;;;;;10.71;72.22;99720.34;4929446;29;20186;-81
2021/10/12 00:05:00;;;;;;;22.10;19.07;;;;;;;10.68;72.18;99715.44;4929597;29;20252;-82
2021/10/12 00:07:27;;;;;;;21.73;19.00;;;;;;;10.75;72.14;99732.28;4930228;29;20516;-80
2021/10/12 00:10:07;;;;;;;22.03;18.60;;;;;;;10.63;72.82;99717.13;4929675;29;20244;-81
2021/10/12 00:12:34;;;;;;;21.17;18.57;;;;;;;10.57;72.92;99721.50;4912059;29;20705;-80
2021/10/12 00:15:01;;;;;;;21.83;18.67;;;;;;;10.51;73.40;99715.13;4897927;29;20297;-80
2021/10/12 00:17:30;;;;;;;22.00;18.73;;;;;;;10.57;73.67;99729.53;4921910;23;20241;-81
2021/10/12 00:20:15;;;;;;;23.20;19.03;;;;;;;10.58;73.57;99725.81;4918826;29;20235;-80
2021/10/12 00:22:54;;;;;;;22.10;18.47;;;;;;;10.50;72.91;99710.81;4934333;29;20256;-80
2021/10/12 00:25:25;;;;;;;21.53;18.40;;;;;;;10.60;72.80;99729.06;4950759;29;20249;-81
2021/10/12 00:27:56;;;;;;;22.40;17.03;;;;;;;10.61;72.59;99709.28;4954339;29;20647;-81
2021/10/12 00:30:25;;;;;;;19.00;16.90;;;;;;;10.43;73.21;99712.72;4940223;29;20236;-81
2021/10/12 00:32:52;;;;;;;20.73;17.57;;;;;;;10.38;73.81;99720.59;4931135;29;20225;-81
2021/10/12 00:35:19;;;;;;;18.30;16.40;;;;;;;10.39;74.06;99716.06;4938051;23;20595;-82
2021/10/12 00:37:49;;;;;;;19.77;16.47;;;;;;;10.46;74.19;99711.47;4971578;28;20259;-81
2021/10/12 00:40:18;;;;;;;19.57;17.07;;;;;;;10.34;74.58;99699.81;4987331;28;20519;-81
2021/10/12 00:42:45;;;;;;;19.00;15.40;;;;;;;10.42;74.40;99696.84;4988484;28;20219;-81
2021/10/12 00:45:17;;;;;;;16.77;14.97;;;;;;;10.46;74.21;99706.09;4970550;28;20318;-80
2021/10/12 00:48:27;;;;;;;15.90;14.30;;;;;;;10.51;73.33;99691.03;4988304;28;20240;-81
2021/10/12 00:51:00;;;;;;;16.10;14.50;;;;;;;10.64;73.12;99695.44;4987591;28;20235;-81
2021/10/12 00:53:32;;;;;;;17.27;14.73;;;;;;;10.54;73.04;99685.22;4986721;28;20235;-81
2021/10/12 00:56:08;;;;;;;16.70;14.10;;;;;;;10.64;73.07;99692.78;4953309;28;20247;-81
2021/10/12 00:58:38;;;;;;;16.80;14.97;;;;;;;10.59;72.45;99692.63;4987611;28;20327;-81
2021/10/12 01:01:07;;;;;;;19.10;15.63;;;;;;;10.70;71.63;99697.25;4973629;23;20237;-81
2021/10/12 01:03:38;;;;;;;17.57;15.60;;;;;;;10.62;72.18;99686.00;4956569;23;21037;-81
2021/10/12 01:06:09;;;;;;;17.87;15.97;;;;;;;10.66;71.79;99689.88;4948182;29;20232;-80
2021/10/12 01:08:42;;;;;;;18.83;16.83;;;;;;;10.64;71.36;99684.72;4966381;29;20205;-81
2021/10/12 01:11:12;;;;;;;17.27;15.50;;;;;;;10.74;71.10;99684.25;4950109;29;20242;-80
2021/10/12 01:13:40;;;;;;;17.47;15.53;;;;;;;10.74;70.87;99693.09;4946563;29;20236;-80
2021/10/12 01:16:15;;;;;;;20.53;17.10;;;;;;;10.62;71.13;99677.97;4953791;29;20252;-81
2021/10/12 01:19:00;;;;;;;19.50;16.23;;;;;;;10.64;71.77;99692.78;4953619;29;20313;-81
2021/10/12 01:21:51;;;;;;;19.60;16.60;;;;;;;10.68;71.12;99685.97;4972062;29;20271;-80
2021/10/12 01:24:22;;;;;;;17.80;15.73;;;;;;;10.59;70.99;99677.34;4969438;29;20301;-80
2021/10/12 01:26:59;;;;;;;18.83;16.63;;;;;;;10.74;70.80;99681.56;4971234;29;20259;-80
2021/10/12 01:29:26;;;;;;;19.13;17.03;;;;;;;10.60;71.37;99681.69;4969347;29;20275;-80
2021/10/12 01:32:01;;;;;;;18.93;16.40;;;;;;;10.61;71.12;99682.50;4962577;23;21487;-80
2021/10/12 01:34:35;;;;;;;18.70;16.70;;;;;;;10.50;71.20;99672.47;4950153;28;20283;-81
2021/10/12 01:37:09;;;;;;;19.27;16.90;;;;;;;10.57;71.55;99687.47;4971088;28;20231;-81
2021/10/12 01:39:41;;;;;;;19.27;17.17;;;;;;;10.57;71.34;99675.94;4970932;29;20244;-81
2021/10/12 01:42:14;;;;;;;20.83;17.93;;;;;;;10.63;71.61;99680.44;4970185;29;20229;-80
2021/10/12 01:44:46;;;;;;;21.67;17.60;;;;;;;10.36;72.64;99679.00;4970899;29;20232;-80
2021/10/12 01:47:16;;;;;;;20.50;17.40;;;;;;;10.33;72.17;99663.34;4970406;29;20228;-80
2021/10/12 01:49:43;;;;;;;21.40;17.50;;;;;;;10.32;72.24;99667.88;4968305;28;20225;-80
2021/10/12 01:52:13;;;;;;;19.23;17.23;;;;;;;10.37;72.11;99675.25;4950900;29;20287;-80
2021/10/12 01:54:41;;;;;;;21.83;17.50;;;;;;;10.34;72.27;99662.31;4951610;29;20243;-81
2021/10/12 01:57:08;;;;;;;19.37;17.30;;;;;;;10.33;72.48;99674.06;4966653;29;20580;-81
2021/10/12 01:59:36;;;;;;;19.23;16.50;;;;;;;10.37;72.26;99672.59;4968580;29;20226;-80
2021/10/12 02:02:04;;;;;;;20.07;17.40;;;;;;;10.32;72.61;99670.56;4951461;29;20213;-80
2021/10/12 02:04:34;;;;;;;20.40;17.17;;;;;;;10.16;72.76;99649.69;4951634;29;20261;-81
2021/10/12 02:07:04;;;;;;;22.53;17.43;;;;;;;10.22;72.94;99650.66;4968982;29;20192;-80
2021/10/12 02:09:36;;;;;;;21.23;17.83;;;;;;;10.31;72.42;99668.13;4969338;28;20232;-80
2021/10/12 02:12:04;;;;;;;19.63;17.03;;;;;;;10.24;72.30;99652.09;4951348;29;20319;-80
2021/10/12 02:14:31;;;;;;;19.77;17.67;;;;;;;10.17;72.52;99650.50;4969791;28;20327;-80
2021/10/12 02:17:00;;;;;;;20.37;17.27;;;;;;;10.14;72.63;99649.84;4948486;29;20263;-80
2021/10/12 02:19:29;;;;;;;20.17;17.43;;;;;;;10.32;71.88;99656.34;4952943;29;20236;-80
2021/10/12 02:22:01;;;;;;;20.30;17.47;;;;;;;10.23;72.69;99652.28;4970176;29;20236;-80
2021/10/12 02:24:28;;;;;;;18.90;16.73;;;;;;;10.20;72.41;99653.56;4976891;23;20260;-80
2021/10/12 02:26:56;;;;;;;18.47;16.63;;;;;;;10.11;72.81;99636.91;4952578;29;20209;-80
2021/10/12 02:29:32;;;;;;;18.50;15.97;;;;;;;10.15;72.98;99650.66;4955602;29;20188;-80
2021/10/12 02:32:27;;;;;;;19.07;16.87;;;;;;;10.05;73.05;99639.63;4976751;23;20227;-80
2021/10/12 02:34:55;;;;;;;18.97;16.97;;;;;;;10.04;73.17;99648.66;4969585;29;20244;-80
2021/10/12 02:37:24;;;;;;;19.47;17.37;;;;;;;9.99;73.36;99651.16;4969809;28;20229;-80
2021/10/12 02:39:52;;;;;;;17.90;16.00;;;;;;;10.05;73.11;99655.69;4971138;29;20276;-80
2021/10/12 02:42:28;;;;;;;20.10;16.93;;;;;;;9.96;73.49;99639.06;4955542;29;20230;-80
2021/10/12 02:45:20;;;;;;;20.53;17.33;;;;;;;9.88;73.56;99643.84;4970500;29;20196;-79
2021/10/12 02:48:01;;;;;;;19.87;17.00;;;;;;;9.79;74.20;99635.25;4968574;29;20247;-80
2021/10/12 02:50:31;;;;;;;19.90;17.03;;;;;;;9.76;74.39;99638.34;4970154;29;20221;-80
2021/10/12 02:53:10;;;;;;;19.37;17.13;;;;;;;9.81;74.52;99648.41;4953876;29;20233;-80
2021/10/12 02:55:45;;;;;;;19.13;17.03;;;;;;;9.77;74.14;99639.97;4970979;29;20225;-81
2021/10/12 02:58:13;;;;;;;22.03;17.90;;;;;;;9.78;74.48;99638.13;4969823;29;20232;-81
2021/10/12 03:00:45;;;;;;;19.27;17.27;;;;;;;9.76;74.39;99637.50;4970052;28;20267;-80
2021/10/12 03:03:21;;;;;;;20.17;17.53;;;;;;;9.71;74.46;99635.47;4970696;28;20232;-80
2021/10/12 03:05:56;;;;;;;20.03;17.50;;;;;;;9.66;75.01;99629.94;4971089;28;20208;-80
2021/10/12 03:08:27;;;;;;;20.00;17.23;;;;;;;9.51;75.09;99610.69;4968055;29;20256;-80
2021/10/12 03:10:55;;;;;;;19.63;17.33;;;;;;;9.62;75.28;99626.06;4950897;29;20303;-80
2021/10/12 03:13:24;;;;;;;20.17;17.77;;;;;;;9.61;75.33;99622.56;4970756;29;20269;-80
2021/10/12 03:15:59;;;;;;;18.33;16.33;;;;;;;9.62;75.46;99626.88;4969912;28;20240;-80
2021/10/12 03:18:54;;;;;;;19.17;17.17;;;;;;;9.48;75.67;99614.59;4969674;29;20223;-80
2021/10/12 03:21:32;;;;;;;19.67;17.00;;;;;;;9.48;75.83;99627.16;4953581;29;20240;-80
2021/10/12 03:24:17;;;;;;;19.43;16.70;;;;;;;9.58;75.30;99627.53;4927872;29;20234;-80
2021/10/12 03:26:48;;;;;;;19.47;16.80;;;;;;;9.56;75.39;99618.91;4944175;23;20656;-80
2021/10/12 03:29:18;;;;;;;20.37;17.03;;;;;;;9.47;75.71;99609.50;4953008;29;20197;-80
2021/10/12 03:31:48;;;;;;;21.53;16.40;;;;;;;9.53;75.34;99614.78;4950509;29;20228;-80
2021/10/12 03:34:35;;;;;;;19.50;17.40;;;;;;;9.58;74.81;99614.16;4983712;23;20591;-80
2021/10/12 03:37:09;;;;;;;21.80;18.20;;;;;;;9.62;75.25;99615.34;4970699;28;20221;-80
2021/10/12 03:39:40;;;;;;;22.00;17.97;;;;;;;9.57;75.42;99620.53;4967154;28;20504;-80
2021/10/12 03:42:07;;;;;;;19.07;17.00;;;;;;;9.51;75.50;99613.38;4949026;29;20232;-80
2021/10/12 03:44:35;;;;;;;19.43;17.17;;;;;;;9.53;75.56;99613.97;4950274;29;20229;-80
2021/10/12 03:47:02;;;;;;;20.30;17.33;;;;;;;9.49;75.71;99613.56;4965586;29;20235;-80
2021/10/12 03:49:30;;;;;;;20.67;18.10;;;;;;;9.48;75.82;99611.94;4966195;29;20299;-80
2021/10/12 03:51:57;;;;;;;21.67;18.17;;;;;;;9.31;75.82;99585.91;4932744;29;20228;-80
2021/10/12 03:54:27;;;;;;;20.10;17.00;;;;;;;9.40;75.67;99606.00;4949602;29;20534;-80
2021/10/12 03:56:53;;;;;;;20.20;17.50;;;;;;;9.42;75.88;99601.28;4973646;23;20240;-80
2021/10/12 03:59:21;;;;;;;20.10;17.23;;;;;;;9.36;76.43;99608.28;4949215;29;20585;-80
2021/10/12 04:01:51;;;;;;;20.57;18.37;;;;;;;9.45;75.79;99614.22;4933681;29;20239;-80
2021/10/12 04:04:21;;;;;;;21.27;18.30;;;;;;;9.34;75.96;99602.31;4966163;29;20236;-80
2021/10/12 04:06:48;;;;;;;21.77;18.10;;;;;;;9.38;75.83;99605.41;4950039;29;20224;-80
2021/10/12 04:09:21;;;;;;;21.13;17.70;;;;;;;9.42;75.43;99606.63;4949497;29;20652;-80
2021/10/12 04:11:50;;;;;;;20.57;17.10;;;;;;;9.26;75.80;99595.38;4965855;29;20517;-80
2021/10/12 04:14:17;;;;;;;20.47;18.33;;;;;;;9.20;76.41;99590.03;4949352;29;20245;-80
2021/10/12 04:16:44;;;;;;;19.60;17.50;;;;;;;9.26;76.12;99587.34;4914217;29;20238;-80
2021/10/12 04:19:10;;;;;;;20.63;17.47;;;;;;;9.18;76.09;99586.78;4945863;29;20677;-80
2021/10/12 04:21:38;;;;;;;19.70;17.07;;;;;;;9.11;77.06;99577.94;4945588;29;20237;-80
2021/10/12 04:24:07;;;;;;;21.07;18.23;;;;;;;9.07;76.66;99580.22;4946164;29;20217;-80
2021/10/12 04:26:40;;;;;;;19.43;17.33;;;;;;;8.93;76.98;99575.13;4945509;29;20311;-81
2021/10/12 04:29:15;;;;;;;20.43;17.57;;;;;;;8.90;77.19;99573.72;4946419;29;20249;-80
2021/10/12 04:31:43;;;;;;;20.90;17.77;;;;;;;8.89;77.14;99574.75;4946831;29;20213;-80
2021/10/12 04:34:09;;;;;;;20.63;18.03;;;;;;;8.79;77.44;99580.50;4946874;29;20236;-80
2021/10/12 04:36:39;;;;;;;21.50;18.27;;;;;;;8.78;77.88;99586.06;4948331;29;20242;-80
2021/10/12 04:39:09;;;;;;;21.07;18.77;;;;;;;8.71;78.12;99578.06;4976603;23;20260;-80
2021/10/12 04:41:39;;;;;;;18.80;16.80;;;;;;;8.68;78.29;99581.16;4969709;29;20233;-80
2021/10/12 04:44:09;;;;;;;19.90;16.93;;;;;;;8.69;78.20;99574.78;4951679;29;20232;-80
2021/10/12 04:46:41;;;;;;;20.13;17.60;;;;;;;8.67;78.63;99565.34;4957950;23;20229;-81
2021/10/12 04:49:15;;;;;;;19.97;17.87;;;;;;;8.62;77.69;99557.97;4932454;29;20244;-80
2021/10/12 04:51:45;;;;;;;22.37;17.53;;;;;;;8.77;77.64;99568.41;4951891;29;20256;-80
2021/10/12 04:54:13;;;;;;;20.00;17.67;;;;;;;8.75;77.85;99565.13;4952297;29;20233;-80
2021/10/12 04:56:41;;;;;;;22.60;18.23;;;;;;;8.74;77.47;99548.25;4941818;23;20256;-80
2021/10/12 04:59:13;;;;;;;22.13;17.97;;;;;;;8.79;77.57;99561.00;4942050;23;20229;-80
2021/10/12 05:01:45;;;;;;;21.57;18.93;;;;;;;8.74;77.51;99556.28;4946155;23;20268;-81
2021/10/12 05:04:25;;;;;;;21.83;18.27;;;;;;;8.82;77.59;99572.06;4972971;29;20220;-80
2021/10/12 05:07:20;;;;;;;22.20;18.10;;;;;;;8.77;77.75;99569.19;4972235;29;20619;-80
2021/10/12 05:10:29;;;;;;;19.93;17.83;;;;;;;8.72;78.05;99573.56;4960626;29;20244;-81
2021/10/12 05:13:16;;;;;;;22.87;19.43;;;;;;;8.77;77.69;99571.09;4974915;28;20235;-81
2021/10/12 05:16:49;;;;;;;23.23;18.77;;;;;;;8.76;77.80;99556.91;4981082;23;20251;-80
2021/10/12 05:19:37;;;;;;;22.00;19.53;;;;;;;8.82;77.55;99569.41;4951776;29;20244;-81
2021/10/12 05:22:21;;;;;;;24.87;20.00;;;;;;;8.71;78.13;99571.91;4939642;29;20293;-80
2021/10/12 05:25:27;;;;;;;23.37;20.67;;;;;;;8.77;78.31;99568.41;4990992;23;20243;-80
2021/10/12 05:28:30;;;;;;;22.87;19.47;;;;;;;8.71;78.63;99572.72;5049976;23;20236;-80
2021/10/12 05:31:37;;;;;;;24.13;20.50;;;;;;;8.74;78.64;99566.97;4975190;29;20316;-81
2021/10/12 05:34:49;;;;;;;24.33;20.63;;;;;;;8.82;78.86;99576.59;4961836;29;20231;-80
2021/10/12 05:37:37;;;;;;;23.37;20.87;;;;;;;8.85;78.27;99570.84;4980720;23;20291;-80
2021/10/12 05:40:36;;;;;;;24.07;20.67;;;;;;;8.87;78.30;99554.59;4951522;23;20237;-80
2021/10/12 05:43:20;;;;;;;25.90;21.40;;;;;;;9.08;77.98;99573.84;4955463;29;20236;-80
2021/10/12 05:46:08;;;;;;;23.03;20.60;;;;;;;9.10;78.02;99558.41;4956271;29;20209;-80
2021/10/12 05:50:13;;;;;;;22.57;20.17;;;;;;;9.37;77.27;99582.38;5116230;23;20227;-80
2021/10/12 05:53:50;;;;;;;24.10;20.13;;;;;;;9.48;76.22;99571.81;4956841;23;20226;-80
2021/10/12 05:57:04;;;;;;;21.53;18.73;;;;;;;9.64;76.12;99589.22;4937357;29;20241;-80
2021/10/12 05:59:59;;;;;;;22.63;19.43;;;;;;;9.65;76.11;99578.31;4947274;23;20248;-80
2021/10/12 06:02:58;;;;;;;23.90;19.80;;;;;;;9.80;75.72;99580.69;4938500;23;20242;-80
2021/10/12 06:05:53;;;;;;;22.63;19.50;;;;;;;9.89;75.50;99570.56;4955919;29;20224;-80
2021/10/12 06:08:54;;;;;;;22.80;20.10;;;;;;;9.93;75.18;99574.44;4995058;23;20262;-80
2021/10/12 06:12:12;;;;;;;23.13;19.63;;;;;;;10.06;74.50;99563.63;5041020;23;20207;-79
2021/10/12 06:14:53;;;;;;;22.73;18.30;;;;;;;9.99;74.38;99547.63;4970223;23;20232;-80
2021/10/12 06:17:25;;;;;;;20.20;18.10;;;;;;;10.19;74.09;99557.38;5030407;23;20232;-82
2021/10/12 06:20:04;;;;;;;21.70;18.37;;;;;;;10.36;74.16;99591.41;4942553;29;20209;-82
2021/10/12 06:22:43;;;;;;;20.47;18.07;;;;;;;10.44;74.05;99572.41;4978832;23;20283;-82
2021/10/12 06:25:45;;;;;;;20.83;17.60;;;;;;;10.63;72.65;99583.16;5063543;23;20681;-81
2021/10/12 06:28:22;;;;;;;19.43;17.23;;;;;;;10.76;72.24;99586.53;4957235;29;20296;-82
2021/10/12 06:31:09;;;;;;;20.23;17.43;;;;;;;10.90;71.36;99584.53;4973906;29;20232;-82
2021/10/12 06:33:40;;;;;;;19.93;17.03;;;;;;;10.97;71.05;99585.25;4971123;29;20256;-83
2021/10/12 06:36:15;;;;;;;20.03;17.20;;;;;;;10.99;71.19;99583.19;4967946;29;20235;-82
2021/10/12 06:38:45;;;;;;;20.27;17.50;;;;;;;11.12;70.69;99590.25;4960880;29;20236;-85
2021/10/12 06:41:15;;;;;;;19.43;17.13;;;;;;;11.24;69.98;99585.78;4947749;29;20248;-83
2021/10/12 06:43:42;;;;;;;20.10;15.93;;;;;;;11.35;69.24;99569.75;4938227;29;20216;-82
2021/10/12 06:46:33;;;;;;;19.10;16.80;;;;;;;11.57;69.20;99591.53;4937387;29;20292;-82
2021/10/12 06:49:12;;;;;;;18.57;15.87;;;;;;;11.63;67.86;99584.44;4950758;29;20221;-82
2021/10/12 06:51:44;;;;;;;19.37;15.93;;;;;;;11.65;68.40;99585.88;4969756;29;20241;-83
2021/10/12 06:54:17;;;;;;;16.60;14.90;;;;;;;11.59;67.11;99591.31;4927714;29;20244;-82
2021/10/12 06:56:52;;;;;;;17.30;15.00;;;;;;;11.86;67.15;99593.44;4955833;29;20208;-83
2021/10/12 06:59:24;;;;;;;16.43;14.73;;;;;;;11.77;66.91;99599.34;4946196;29;20240;-82
2021/10/12 07:01:52;;;;;;;16.13;14.00;;;;;;;11.76;66.96;99606.59;4937586;29;20252;-83
2021/10/12 07:04:20;;;;;;;16.20;14.07;;;;;;;11.87;66.25;99607.69;4950458;29;20240;-83
2021/10/12 07:06:49;;;;;;;16.27;14.30;;;;;;;12.01;65.70;99598.38;4935211;29;20244;-82
2021/10/12 07:09:17;;;;;;;15.53;13.60;;;;;;;12.11;65.04;99600.50;4948141;29;20294;-82
2021/10/12 07:11:45;;;;;;;16.97;13.77;;;;;;;12.11;65.49;99597.84;4952120;29;20220;-82
2021/10/12 07:14:13;;;;;;;16.63;14.63;;;;;;;12.32;65.36;99610.72;4947987;29;20542;-82
2021/10/12 07:16:41;;;;;;;15.73;13.83;;;;;;;12.49;65.10;99606.31;4909366;29;20293;-83
2021/10/12 07:19:08;;;;;;;17.40;14.60;;;;;;;12.48;64.75;99598.47;4939343;29;20232;-83
2021/10/12 07:21:35;;;;;;;16.67;14.87;;;;;;;12.61;64.26;99593.69;4938875;29;20248;-83
2021/10/12 07:24:16;;;;;;;15.23;13.27;;;;;;;12.43;63.89;99598.34;4952521;23;20236;-82
2021/10/12 07:26:51;;;;;;;13.37;11.97;;;;;;;12.66;63.12;99603.75;4955957;29;20239;-82
2021/10/12 07:29:48;;;;;;;14.87;11.97;;;;;;;12.56;62.42;99607.00;4940078;29;20324;-82
2021/10/12 07:32:18;;;;;;;13.00;11.60;;;;;;;12.65;62.13;99602.91;4951388;29;20224;-82
2021/10/12 07:34:50;;;;;;;14.23;12.73;;;;;;;12.59;62.34;99595.81;4949221;29;20251;-82
2021/10/12 07:37:22;;;;;;;14.47;12.97;;;;;;;12.71;63.20;99598.47;4970537;29;20248;-83
2021/10/12 07:39:48;;;;;;;13.30;11.90;;;;;;;12.96;62.39;99598.25;4952293;29;20284;-82
2021/10/12 07:42:16;;;;;;;13.80;12.07;;;;;;;12.91;61.94;99592.75;4942232;28;20256;-83
2021/10/12 07:44:46;;;;;;;14.17;11.90;;;;;;;12.93;61.85;99596.00;4936400;29;20213;-83
2021/10/12 07:47:14;;;;;;;13.13;11.77;;;;;;;13.04;61.10;99584.44;4935749;29;20252;-83
2021/10/12 07:49:44;;;;;;;13.93;11.63;;;;;;;13.06;61.75;99585.03;4936788;29;20320;-83
2021/10/12 07:52:12;;;;;;;14.07;11.50;;;;;;;13.07;61.91;99581.25;4968573;29;20300;-83
2021/10/12 07:54:45;;;;;;;13.83;11.37;;;;;;;12.94;61.65;99574.25;4952863;29;20217;-83
2021/10/12 07:57:16;;;;;;;13.23;10.87;;;;;;;13.01;61.72;99582.22;4933369;29;20225;-83
2021/10/12 07:59:44;;;;;;;11.50;9.23;;;;;;;13.02;61.31;99578.44;4933994;29;20288;-83
2021/10/12 08:02:13;;;;;;;9.97;8.93;;;;;;;12.71;61.82;99572.41;4917775;29;20264;-83
2021/10/12 08:04:42;;;;;;;11.00;9.17;;;;;;;12.65;61.03;99559.09;4933680;29;20225;-83
2021/10/12 08:07:12;;;;;;;10.63;9.07;;;;;;;12.73;61.88;99567.63;4949234;29;20245;-83
2021/10/12 08:09:39;;;;;;;11.33;8.50;;;;;;;13.04;60.39;99570.97;4917141;29;20308;-83
2021/10/12 08:12:09;;;;;;;9.87;8.40;;;;;;;13.17;59.61;99559.97;4950335;29;20217;-83
2021/10/12 08:14:46;;;;;;;9.00;8.10;;;;;;;13.42;58.87;99567.75;4934108;29;20232;-83
2021/10/12 08:17:16;;;;;;;9.83;7.80;;;;;;;13.43;59.00;99577.47;4948684;29;20256;-83
2021/10/12 08:19:48;;;;;;;9.10;7.97;;;;;;;13.48;58.02;99561.41;4949057;29;20198;-83
2021/10/12 08:22:17;;;;;;;10.27;8.37;;;;;;;13.80;57.71;99567.94;4934331;29;20332;-83
2021/10/12 08:24:46;;;;;;;9.40;8.40;;;;;;;13.88;57.13;99570.25;4949268;29;20583;-83
2021/10/12 08:27:13;;;;;;;10.60;8.80;;;;;;;13.82;56.75;99565.00;4933700;29;20296;-83
2021/10/12 08:29:44;;;;;;;9.17;8.20;;;;;;;13.98;56.88;99575.00;4950339;29;20692;-83
2021/10/12 08:32:15;;;;;;;9.50;8.37;;;;;;;13.76;57.07;99565.97;4951075;23;20271;-83
2021/10/12 08:34:47;;;;;;;8.27;7.37;;;;;;;13.96;56.80;99569.84;4934810;29;20253;-83
2021/10/12 08:37:14;;;;;;;8.23;7.20;;;;;;;14.03;56.59;99578.59;4951378;29;20230;-83
2021/10/12 08:39:45;;;;;;;8.37;7.10;;;;;;;13.97;57.20;99574.16;4950819;29;20257;-83
2021/10/12 08:42:32;;;;;;;9.37;7.20;;;;;;;13.99;56.27;99566.69;4949101;29;20234;-82
2021/10/12 08:45:05;;;;;;;7.83;6.57;;;;;;;13.69;56.94;99576.88;4961012;23;20231;-83
2021/10/12 08:47:34;;;;;;;8.10;6.77;;;;;;;13.81;56.53;99576.84;4966276;23;20237;-82
2021/10/12 08:50:24;;;;;;;7.80;6.83;;;;;;;13.64;57.83;99579.47;4917737;29;20245;-82
2021/10/12 08:52:52;;;;;;;11.70;6.93;;;;;;;13.52;57.71;99579.53;5025187;23;20200;-81
2021/10/12 08:55:24;;;;;;;7.03;6.27;;;;;;;13.53;57.61;99573.06;4953670;29;20189;-82
2021/10/12 08:57:52;;;;;;;6.97;6.27;;;;;;;13.52;56.92;99573.34;4954633;29;20248;-82
2021/10/12 09:00:42;;;;;;;6.50;5.80;;;;;;;13.46;56.52;99571.59;4968671;29;20229;-82
2021/10/12 09:06:02;;;;;;;5.97;4.77;;;;;;;13.75;55.48;99556.25;4953000;29;20251;-82
2021/10/12 09:09:02;;;;;;;5.87;4.87;;;;;;;14.10;54.79;99556.88;4968898;29;20235;-82
2021/10/12 09:11:39;;;;;;;5.67;4.40;;;;;;;14.33;54.86;99550.50;4976888;23;20272;-82
2021/10/12 09:14:12;;;;;;;5.57;4.17;;;;;;;14.43;54.43;99551.50;4948731;29;20228;-82
2021/10/12 09:16:44;;;;;;;5.67;4.60;;;;;;;14.35;54.71;99554.59;4950337;29;20229;-82
2021/10/12 09:19:17;;;;;;;5.47;4.03;;;;;;;14.56;54.15;99542.25;4950231;29;20232;-83
2021/10/12 09:21:50;;;;;;;5.73;3.97;;;;;;;14.42;54.07;99549.06;4932746;29;20256;-82
2021/10/12 09:24:19;;;;;;;3.63;3.10;;;;;;;14.40;53.73;99541.22;4949426;29;20256;-82
2021/10/12 09:27:06;;;;;;;4.43;3.33;;;;;;;14.55;53.45;99537.97;4949512;29;20237;-82
2021/10/12 09:29:38;;;;;;;4.13;3.33;;;;;;;14.63;54.13;99545.63;4933636;29;20235;-82
2021/10/12 09:32:08;;;;;;;6.10;3.57;;;;;;;14.53;54.01;99543.59;4949101;29;20661;-82
2021/10/12 09:34:56;;;;;;;4.93;3.27;;;;;;;14.70;52.99;99542.72;4950318;29;20190;-82
2021/10/12 09:37:34;;;;;;;4.97;3.63;;;;;;;14.89;53.15;99538.69;4936463;29;20240;-82
2021/10/12 09:40:17;;;;;;;5.10;3.93;;;;;;;14.95;52.71;99538.50;4951383;29;20241;-82
2021/10/12 09:42:48;;;;;;;5.93;3.90;;;;;;;14.91;52.51;99529.28;4935556;29;20317;-82
2021/10/12 09:45:40;;;;;;;6.27;4.20;;;;;;;14.92;52.73;99519.31;4951765;29;20250;-82
2021/10/12 09:48:30;;;;;;;4.80;3.80;;;;;;;15.06;53.14;99531.38;4950645;29;20260;-82
2021/10/12 09:51:19;;;;;;;6.47;3.90;;;;;;;15.26;52.64;99525.38;4951837;29;20257;-80
2021/10/12 09:53:52;;;;;;;5.47;4.20;;;;;;;15.29;52.45;99522.19;4950346;29;20241;-80
2021/10/12 09:56:20;;;;;;;6.03;4.23;;;;;;;15.27;52.12;99521.63;4918802;29;20297;-80
2021/10/12 09:58:56;;;;;;;6.10;4.30;;;;;;;15.02;52.44;99505.13;5071151;23;20218;-81
2021/10/12 10:01:47;;;;;;;6.30;4.40;;;;;;;15.24;52.91;99509.47;4953848;29;20244;-81
2021/10/12 10:04:19;;;;;;;5.43;4.43;;;;;;;15.48;52.64;99498.38;4966121;29;20273;-81
2021/10/12 10:06:48;;;;;;;5.80;4.60;;;;;;;15.51;51.98;99504.09;4942551;29;20252;-83
2021/10/12 10:09:19;;;;;;;6.53;4.87;;;;;;;15.51;52.16;99496.00;4942423;29;20586;-82
2021/10/12 10:11:46;;;;;;;7.03;4.33;;;;;;;15.80;51.40;99508.16;4946639;29;20271;-84
2021/10/12 10:14:14;;;;;;;5.63;4.37;;;;;;;15.83;51.31;99502.25;4941414;29;20236;-83
2021/10/12 10:16:52;;;;;;;8.03;4.37;;;;;;;16.03;51.07;99498.09;4928272;29;20316;-82
2021/10/12 10:19:24;;;;;;;4.80;4.13;;;;;;;15.81;50.93;99499.00;4926553;29;20229;-85
2021/10/12 10:21:51;;;;;;;5.97;4.27;;;;;;;15.60;51.67;99486.38;4926982;29;20249;-84
2021/10/12 10:24:37;;;;;;;6.00;4.30;;;;;;;15.49;52.39;99497.31;4945285;29;20258;-81
2021/10/12 10:27:29;;;;;;;6.07;4.10;;;;;;;15.59;52.14;99482.03;4944839;29;20325;-87
2021/10/12 10:30:22;;;;;;;6.03;4.43;;;;;;;15.32;52.71;99486.59;4942482;29;20650;-86
2021/10/12 10:32:58;;;;;;;6.00;4.17;;;;;;;15.34;52.97;99469.09;4942652;29;20295;-87
2021/10/12 10:35:55;;;;;;;5.60;4.03;;;;;;;15.15;52.80;99492.06;4926192;29;20719;-85
2021/10/12 10:38:32;;;;;;;4.60;3.77;;;;;;;14.88;53.71;99475.03;4909126;29;20313;-82
2021/10/12 10:41:08;;;;;;;6.37;4.00;;;;;;;15.04;53.24;99471.44;4959352;29;20285;-85
2021/10/12 10:43:54;;;;;;;5.30;4.00;;;;;;;15.01;54.32;99468.44;4945121;29;20218;-80
2021/10/12 10:46:32;;;;;;;7.60;4.00;;;;;;;15.03;53.72;99463.59;4940567;29;20631;-85
2021/10/12 10:49:14;;;;;;;7.50;3.87;;;;;;;15.15;53.02;99446.22;4938700;29;20234;-88
2021/10/12 10:51:56;;;;;;;4.57;3.23;;;;;;;14.98;52.80;99448.97;4912043;29;20230;-80
2021/10/12 10:55:04;;;;;;;4.07;3.20;;;;;;;15.04;53.40;99443.63;4978323;23;20291;-79
2021/10/12 10:58:28;;;;;;;4.40;3.40;;;;;;;15.05;53.00;99435.28;4974920;28;20233;-80
2021/10/12 11:00:57;;;;;;;4.60;3.50;;;;;;;15.04;53.21;99416.66;4989367;28;20243;-82
2021/10/12 11:03:29;;;;;;;4.00;3.60;;;;;;;15.05;52.93;99419.09;4973565;28;20256;-80
2021/10/12 11:06:04;;;;;;;4.67;3.40;;;;;;;15.00;53.59;99397.47;4992400;28;20184;-84
2021/10/12 11:08:40;;;;;;;3.83;3.20;;;;;;;15.13;53.04;99399.75;4981821;28;20328;-80
2021/10/12 11:11:20;;;;;;;4.37;3.40;;;;;;;14.97;52.70;99388.00;4969302;28;20229;-85
2021/10/12 11:13:47;;;;;;;5.57;3.50;;;;;;;15.16;52.56;99379.56;4947353;28;20564;-87
2021/10/12 11:16:16;;;;;;;4.17;3.47;;;;;;;15.37;52.43;99394.88;4946837;28;20248;-81
2021/10/12 11:18:46;;;;;;;4.20;3.63;;;;;;;15.48;51.80;99385.78;4966644;28;20236;-85
2021/10/12 11:21:15;;;;;;;3.87;3.43;;;;;;;15.42;52.19;99376.84;4963851;28;20240;-84
2021/10/12 11:23:49;;;;;;;4.10;3.50;;;;;;;15.69;51.78;99376.81;4965130;28;20267;-87
2021/10/12 11:26:20;;;;;;;6.00;3.80;;;;;;;15.64;51.82;99365.13;4961620;28;20264;-85
2021/10/12 11:28:51;;;;;;;4.37;3.70;;;;;;;15.78;51.25;99345.53;4949581;28;20702;-85
2021/10/12 11:31:21;;;;;;;5.70;4.00;;;;;;;15.95;51.12;99345.38;4950075;28;20284;-83
2021/10/12 11:33:53;;;;;;;5.27;3.83;;;;;;;15.93;50.71;99341.31;4949302;28;20234;-87
2021/10/12 11:36:28;;;;;;;5.93;3.30;;;;;;;15.82;49.95;99337.72;4956655;28;20271;-81
2021/10/12 11:39:17;;;;;;;5.53;3.50;;;;;;;15.41;50.53;99332.00;4959434;28;20178;-81
2021/10/12 11:41:59;;;;;;;4.30;3.77;;;;;;;15.47;50.65;99332.03;4997841;23;20293;-83
2021/10/12 11:44:36;;;;;;;4.33;3.50;;;;;;;15.34;50.99;99314.41;4950035;29;20273;-83
2021/10/12 11:47:19;;;;;;;5.73;3.60;;;;;;;15.29;50.50;99314.38;4936616;29;20293;-83
2021/10/12 11:50:06;;;;;;;4.33;3.57;;;;;;;15.19;50.20;99304.31;4984681;23;20235;-83
2021/10/12 11:52:40;;;;;;;6.30;3.83;;;;;;;15.13;51.11;99320.69;4973152;28;20255;-83
2021/10/12 11:55:17;;;;;;;4.20;3.80;;;;;;;14.95;52.11;99328.09;4993997;28;20201;-83
2021/10/12 11:57:48;;;;;;;4.53;3.70;;;;;;;15.05;51.69;99311.19;4993198;28;20228;-83
2021/10/12 12:00:40;;;;;;;5.03;3.80;;;;;;;15.08;51.53;99326.03;4952522;28;20228;-82
2021/10/12 12:03:38;;;;;;;5.27;3.73;;;;;;;15.27;51.08;99316.50;4982073;28;20232;-81
2021/10/12 12:06:35;;;;;;;5.03;3.80;;;;;;;15.10;50.79;99308.53;4992081;28;20283;-82
2021/10/12 12:09:31;;;;;;;4.37;3.50;;;;;;;15.08;51.87;99323.34;4980008;28;20228;-81
2021/10/12 12:12:13;;;;;;;5.10;3.30;;;;;;;15.33;51.21;99321.69;4959796;28;20272;-81